Time;durP1;ratioP1;P1;durP2;ratioP2;P2;SDS_P1;SDS_P2;PMS_P1;PMS_P2;Temp;Humidity;BMP_temperature;BMP_pressure;BME280_temperature;BME280_humidity;BME280_pressure;Samples;Min_cycle;Max_cycle;Signal;HPM_P1;HPM_P2
2021/12/26 00:00:24;;;;;;;6.60;3.42;;;-3271.50;84.00;;;;;;5088707;28;20042;-47
2021/12/26 00:02:50;;;;;;;7.15;2.67;;;-3271.50;83.90;;;;;;5111271;28;20020;-46
2021/12/26 00:05:20;;;;;;;7.35;2.70;;;-3271.50;83.70;;;;;;5077431;28;20028;-51
2021/12/26 00:07:46;;;;;;;5.28;2.55;;;-3271.50;83.70;;;;;;5095446;28;20377;-50
2021/12/26 00:10:16;;;;;;;5.28;2.53;;;-3271.40;83.70;;;;;;5095297;28;20330;-45
2021/12/26 00:12:42;;;;;;;6.63;2.70;;;-3271.40;83.60;;;;;;5096095;28;20047;-46
2021/12/26 00:15:11;;;;;;;6.93;2.47;;;-3271.40;83.70;;;;;;5098983;28;20050;-51
2021/12/26 00:17:36;;;;;;;8.52;2.95;;;-3271.40;83.50;;;;;;5098391;28;20100;-46
2021/12/26 00:20:04;;;;;;;6.72;2.67;;;-3271.40;83.50;;;;;;5094773;28;20570;-48
2021/12/26 00:22:30;;;;;;;8.27;2.95;;;-3271.40;83.40;;;;;;5096108;28;20028;-45
2021/12/26 00:24:56;;;;;;;5.20;2.72;;;-3271.40;83.30;;;;;;5097618;28;20028;-46
2021/12/26 00:27:23;;;;;;;5.53;2.92;;;-3271.40;83.40;;;;;;5114385;28;20468;-45
2021/12/26 00:29:51;;;;;;;5.60;2.55;;;-3271.40;83.50;;;;;;5104298;28;20107;-47
2021/12/26 00:32:17;;;;;;;4.68;2.13;;;-3271.30;83.60;;;;;;5094391;28;20035;-47
2021/12/26 00:34:44;;;;;;;5.75;2.45;;;-3271.40;83.60;;;;;;5092990;28;20559;-46
2021/12/26 00:37:10;;;;;;;4.63;2.45;;;-3271.30;83.50;;;;;;5096858;28;20043;-47
2021/12/26 00:39:36;;;;;;;4.60;2.17;;;-3271.40;83.70;;;;;;5103407;28;20027;-45
2021/12/26 00:42:02;;;;;;;4.65;2.17;;;-3271.40;83.60;;;;;;5113810;28;20071;-44
2021/12/26 00:44:27;;;;;;;4.95;1.77;;;-3271.40;83.50;;;;;;5096385;28;20053;-45
2021/12/26 00:46:53;;;;;;;4.57;2.42;;;-3271.40;83.50;;;;;;5112932;28;20032;-44
2021/12/26 00:49:21;;;;;;;4.07;2.05;;;-3271.40;83.40;;;;;;5102994;28;20031;-47
2021/12/26 00:51:47;;;;;;;5.05;2.38;;;-3271.40;83.50;;;;;;5114265;28;20027;-46
2021/12/26 00:54:12;;;;;;;4.03;1.98;;;-3271.30;83.50;;;;;;5113771;28;20031;-46
2021/12/26 00:56:38;;;;;;;5.30;3.13;;;-3271.40;83.50;;;;;;5094313;28;20039;-48
2021/12/26 00:59:06;;;;;;;8.43;2.45;;;-3271.40;83.50;;;;;;5098174;28;20338;-50
2021/12/26 01:01:32;;;;;;;5.70;2.20;;;-3271.50;83.50;;;;;;5108093;28;20031;-48
2021/12/26 01:03:58;;;;;;;4.70;2.38;;;-3271.60;83.40;;;;;;5104195;28;20147;-47
2021/12/26 01:06:24;;;;;;;4.53;2.33;;;-3271.60;83.30;;;;;;5114700;28;20436;-49
2021/12/26 01:08:51;;;;;;;6.97;3.20;;;-3271.60;83.30;;;;;;5091611;28;20406;-47
2021/12/26 01:11:33;;;;;;;6.03;2.67;;;-3271.60;83.00;;;;;;5114130;28;20037;-45
2021/12/26 01:14:00;;;;;;;7.13;3.25;;;-3271.60;83.00;;;;;;5097453;28;20024;-47
2021/12/26 01:16:28;;;;;;;7.20;2.55;;;-3271.60;82.80;;;;;;5123158;27;20042;-46
2021/12/26 01:19:07;;;;;;;5.80;2.35;;;-3271.60;82.70;;;;;;5099064;27;20388;-47
2021/12/26 01:21:36;;;;;;;5.07;2.25;;;-3271.60;82.30;;;;;;5060962;28;20122;-46
2021/12/26 01:24:06;;;;;;;5.20;2.22;;;-3271.50;82.20;;;;;;5098178;28;20036;-45
2021/12/26 01:26:32;;;;;;;5.88;2.40;;;-3271.50;82.60;;;;;;5093597;28;20060;-49
2021/12/26 01:28:59;;;;;;;5.03;2.40;;;-3271.50;83.00;;;;;;5102923;28;20024;-47
2021/12/26 01:31:26;;;;;;;3.38;1.98;;;-3271.60;82.70;;;;;;5112416;28;20031;-46
2021/12/26 01:33:56;;;;;;;7.40;2.30;;;-3271.60;82.50;;;;;;5081811;28;20074;-47
2021/12/26 01:36:23;;;;;;;4.13;2.15;;;-3271.70;82.60;;;;;;5093471;28;20484;-47
2021/12/26 01:38:49;;;;;;;3.50;1.77;;;-3271.60;82.70;;;;;;5112537;28;20478;-48
2021/12/26 01:41:17;;;;;;;3.22;1.70;;;-3271.60;82.60;;;;;;5116028;27;20055;-45
2021/12/26 01:43:46;;;;;;;5.15;2.05;;;-3271.50;82.50;;;;;;5098455;28;20040;-45
2021/12/26 01:46:12;;;;;;;;;;;-3271.50;82.60;;;;;;5093694;28;20425;-46
2021/12/26 01:48:40;;;;;;;3.08;1.90;;;-3271.50;82.90;;;;;;5094407;28;19908;-45
2021/12/26 01:51:07;;;;;;;3.15;1.60;;;-3271.60;82.70;;;;;;5093361;28;20110;-44
2021/12/26 01:53:38;;;;;;;5.20;2.00;;;-3271.60;82.10;;;;;;5107527;28;20027;-46
2021/12/26 01:56:10;;;;;;;5.43;1.70;;;-3271.70;82.30;;;;;;5113806;28;20024;-48
2021/12/26 01:58:40;;;;;;;3.92;2.03;;;-3271.70;82.10;;;;;;5109713;28;20106;-44
2021/12/26 02:01:09;;;;;;;6.93;1.88;;;-3271.70;81.60;;;;;;5103912;28;20515;-47
2021/12/26 02:03:35;;;;;;;3.83;1.25;;;-3271.80;81.50;;;;;;5099774;28;20036;-48
2021/12/26 02:06:02;;;;;;;2.47;1.42;;;-3271.90;80.60;;;;;;5081705;28;20042;-47
2021/12/26 02:08:28;;;;;;;4.57;1.67;;;-3271.90;80.50;;;;;;5108492;28;20027;-44
2021/12/26 02:11:00;;;;;;;3.70;1.90;;;-3271.90;80.30;;;;;;5098806;28;20037;-45
2021/12/26 02:13:29;;;;;;;4.95;1.80;;;-3271.80;80.90;;;;;;5088955;28;20135;-45
2021/12/26 02:15:55;;;;;;;5.05;1.55;;;-3271.80;81.20;;;;;;5110507;27;20488;-47
2021/12/26 02:18:22;;;;;;;4.45;2.25;;;-3271.70;80.90;;;;;;5104513;28;20036;-45
2021/12/26 02:23:28;;;;;;;5.32;1.60;;;-3271.60;81.30;;;;;;5116249;28;20449;-46
2021/12/26 02:28:26;;;;;;;4.28;2.05;;;-3271.50;81.70;;;;;;5099133;28;20035;-47
2021/12/26 02:30:53;;;;;;;4.72;2.40;;;-3271.50;81.80;;;;;;5086819;28;20669;-44
2021/12/26 02:33:21;;;;;;;5.47;2.17;;;-3271.40;81.90;;;;;;5079510;28;20035;-46
2021/12/26 02:35:51;;;;;;;3.10;1.60;;;-3271.50;82.10;;;;;;5117299;28;20024;-46
2021/12/26 02:38:17;;;;;;;2.85;1.73;;;-3271.50;82.20;;;;;;5114990;28;20047;-45
2021/12/26 02:40:46;;;;;;;5.07;2.60;;;-3271.50;82.00;;;;;;5134729;27;20034;-44
2021/12/26 02:43:14;;;;;;;3.65;2.08;;;-3271.60;81.80;;;;;;5109907;27;20036;-46
2021/12/26 02:45:43;;;;;;;5.00;2.50;;;-3271.50;81.80;;;;;;5096482;28;20111;-47
2021/12/26 02:48:09;;;;;;;3.97;2.55;;;-3271.60;81.80;;;;;;5107484;28;20031;-48
2021/12/26 02:50:38;;;;;;;6.90;2.17;;;-3271.60;81.60;;;;;;5116925;28;20034;-47
2021/12/26 02:53:04;;;;;;;4.00;1.80;;;-3271.60;81.50;;;;;;5112294;28;20102;-47
2021/12/26 02:55:30;;;;;;;7.05;2.05;;;-3271.60;81.20;;;;;;5117034;28;20024;-44
2021/12/26 02:58:00;;;;;;;5.28;1.58;;;-3271.50;81.30;;;;;;5106090;28;20031;-46
2021/12/26 03:00:27;;;;;;;;;;;-3271.40;81.50;;;;;;5105875;28;20020;-46
2021/12/26 03:02:57;;;;;;;3.70;1.58;;;-3271.40;81.70;;;;;;5107274;28;20023;-45
2021/12/26 03:05:35;;;;;;;4.15;1.70;;;-3271.40;81.70;;;;;;5098414;28;20040;-49
2021/12/26 03:08:01;;;;;;;5.05;1.80;;;-3271.40;81.80;;;;;;5111725;28;20043;-50
2021/12/26 03:10:28;;;;;;;5.18;1.80;;;-3271.40;81.90;;;;;;5115919;28;20015;-47
2021/12/26 03:13:03;;;;;;;3.35;1.65;;;-3271.40;82.00;;;;;;5102740;28;20731;-46
2021/12/26 03:15:30;;;;;;;5.28;1.67;;;-3271.40;82.00;;;;;;5102319;28;20069;-45
2021/12/26 03:17:56;;;;;;;5.28;2.30;;;-3271.30;81.90;;;;;;5108155;28;20122;-50
2021/12/26 03:20:25;;;;;;;5.57;2.08;;;-3271.30;82.00;;;;;;5077204;28;20506;-50
2021/12/26 03:22:51;;;;;;;6.22;1.92;;;-3271.30;82.20;;;;;;5115597;28;20031;-46
2021/12/26 03:25:22;;;;;;;3.72;1.48;;;-3271.30;82.00;;;;;;5116211;28;20601;-51
2021/12/26 03:27:49;;;;;;;4.53;1.50;;;-3271.30;82.10;;;;;;5078528;28;20119;-48
2021/12/26 03:30:21;;;;;;;3.60;2.15;;;-3271.30;82.30;;;;;;5096909;28;20483;-50
2021/12/26 03:32:51;;;;;;;6.00;1.58;;;-3271.30;82.10;;;;;;5089067;28;20024;-50
2021/12/26 03:35:18;;;;;;;4.30;1.75;;;-3271.20;81.80;;;;;;5115895;28;20035;-47
2021/12/26 03:37:45;;;;;;;8.95;2.58;;;-3271.30;82.30;;;;;;5105552;28;20052;-48
2021/12/26 03:40:11;;;;;;;3.15;1.70;;;-3271.30;82.20;;;;;;5108741;28;20034;-46
2021/12/26 03:42:37;;;;;;;4.82;2.10;;;-3271.30;82.30;;;;;;5110602;28;20055;-48
2021/12/26 03:45:06;;;;;;;3.55;1.40;;;-3271.30;82.40;;;;;;5115119;28;20104;-49
2021/12/26 03:47:32;;;;;;;7.05;1.73;;;-3271.30;82.30;;;;;;5111907;28;20076;-47
2021/12/26 03:49:58;;;;;;;5.07;2.13;;;-3271.20;82.30;;;;;;5114851;28;20024;-50
2021/12/26 03:52:25;;;;;;;7.18;2.25;;;-3271.20;82.20;;;;;;5114310;28;20031;-45
2021/12/26 03:54:54;;;;;;;6.18;2.25;;;-3271.20;82.30;;;;;;5115667;28;20031;-45
2021/12/26 03:57:20;;;;;;;7.75;2.22;;;-3271.30;82.30;;;;;;5112365;28;20028;-50
2021/12/26 03:59:48;;;;;;;5.07;2.40;;;-3271.20;82.30;;;;;;5106573;28;20040;-47
2021/12/26 04:02:15;;;;;;;6.65;2.90;;;-3271.20;82.30;;;;;;5103833;28;20036;-48
2021/12/26 04:04:42;;;;;;;9.38;2.55;;;-3271.20;82.30;;;;;;5094106;28;20113;-49
2021/12/26 04:07:08;;;;;;;5.35;2.85;;;-3271.20;82.00;;;;;;5110825;28;20027;-51
2021/12/26 04:09:34;;;;;;;6.70;2.45;;;-3271.20;81.70;;;;;;5094823;28;20369;-48
2021/12/26 04:12:00;;;;;;;5.22;2.50;;;-3271.20;81.50;;;;;;5109165;28;20029;-48
2021/12/26 04:14:25;;;;;;;5.20;2.25;;;-3271.10;81.60;;;;;;5115285;28;20020;-45
2021/12/26 04:16:51;;;;;;;4.18;1.90;;;-3271.10;81.70;;;;;;5114403;28;20118;-45
2021/12/26 04:19:17;;;;;;;4.13;1.70;;;-3271.10;81.40;;;;;;5096079;28;20369;-48
2021/12/26 04:21:45;;;;;;;3.42;1.60;;;-3271.10;81.50;;;;;;5097417;28;20397;-49
2021/12/26 04:24:11;;;;;;;3.42;1.52;;;-3271.10;81.40;;;;;;5115482;27;20027;-45
2021/12/26 04:26:36;;;;;;;4.47;1.58;;;-3271.10;81.60;;;;;;5124836;27;20038;-46
2021/12/26 04:29:05;;;;;;;3.15;1.65;;;-3271.10;81.40;;;;;;5102008;28;20024;-49
2021/12/26 04:31:30;;;;;;;2.95;1.48;;;-3271.10;81.40;;;;;;5107174;27;20038;-47
2021/12/26 04:33:56;;;;;;;3.38;1.52;;;-3271.00;81.50;;;;;;5129458;27;20027;-49
2021/12/26 04:36:22;;;;;;;4.10;1.63;;;-3271.00;81.40;;;;;;5105363;27;20023;-46
2021/12/26 04:38:47;;;;;;;4.28;2.20;;;-3271.00;81.40;;;;;;5117262;27;20175;-46
2021/12/26 04:41:13;;;;;;;6.47;1.73;;;-3271.00;81.30;;;;;;5134515;27;20111;-44
2021/12/26 04:43:39;;;;;;;4.20;2.05;;;-3271.00;81.20;;;;;;5134477;27;20537;-47
2021/12/26 04:46:06;;;;;;;3.08;1.58;;;-3271.00;81.00;;;;;;5116625;27;20036;-49
2021/12/26 04:48:34;;;;;;;5.47;2.15;;;-3271.00;80.70;;;;;;5132021;27;20061;-48
2021/12/26 04:51:00;;;;;;;5.32;2.05;;;-3270.90;80.60;;;;;;5135342;27;20031;-46
2021/12/26 04:53:28;;;;;;;3.70;1.92;;;-3270.90;80.70;;;;;;5131434;27;20027;-45
2021/12/26 04:55:54;;;;;;;4.60;1.85;;;-3270.90;80.60;;;;;;5083416;27;20367;-45
2021/12/26 04:58:20;;;;;;;3.47;1.80;;;-3270.90;80.30;;;;;;5132538;27;20028;-44
2021/12/26 05:00:48;;;;;;;5.85;2.97;;;-3270.90;80.30;;;;;;5121039;27;20035;-45
2021/12/26 05:03:14;;;;;;;6.00;3.08;;;-3270.90;80.30;;;;;;5108244;27;20016;-47
2021/12/26 05:05:44;;;;;;;3.08;1.88;;;-3270.90;80.10;;;;;;5130721;27;20035;-47
2021/12/26 05:08:09;;;;;;;;;;;-3270.90;80.20;;;;;;5116591;27;20031;-44
2021/12/26 05:10:35;;;;;;;3.97;1.77;;;-3270.80;80.10;;;;;;5134380;27;19915;-44
2021/12/26 05:13:02;;;;;;;3.08;1.50;;;-3270.80;80.30;;;;;;5133766;27;20103;-44
2021/12/26 05:15:30;;;;;;;6.88;1.67;;;-3270.90;80.30;;;;;;5134397;27;20020;-44
2021/12/26 05:17:59;;;;;;;3.33;1.37;;;-3270.90;80.20;;;;;;5114972;27;20459;-45
2021/12/26 05:20:26;;;;;;;3.35;1.35;;;-3270.80;80.30;;;;;;5134166;27;20601;-48
2021/12/26 05:22:55;;;;;;;5.57;1.58;;;-3270.80;80.50;;;;;;5126605;27;20036;-47
2021/12/26 05:25:22;;;;;;;4.03;1.55;;;-3270.80;80.60;;;;;;5096307;28;20084;-44
2021/12/26 05:27:49;;;;;;;2.83;1.00;;;-3270.80;80.40;;;;;;5115166;27;20543;-51
2021/12/26 05:30:17;;;;;;;3.03;1.10;;;-3270.90;80.60;;;;;;5115186;28;20031;-44
2021/12/26 05:32:48;;;;;;;3.88;1.42;;;-3270.90;80.40;;;;;;5134194;27;20440;-44
2021/12/26 05:35:15;;;;;;;3.70;1.58;;;-3270.90;80.30;;;;;;5127069;27;20040;-44
2021/12/26 05:37:41;;;;;;;3.67;1.60;;;-3270.80;80.40;;;;;;5128669;27;20082;-47
2021/12/26 05:40:11;;;;;;;3.30;1.65;;;-3270.80;80.40;;;;;;5108499;28;20031;-46
2021/12/26 05:42:37;;;;;;;5.05;1.35;;;-3270.80;80.30;;;;;;5133415;27;20348;-46
2021/12/26 05:45:05;;;;;;;4.15;1.70;;;-3270.80;80.30;;;;;;5134027;27;20386;-46
2021/12/26 05:47:31;;;;;;;4.10;1.55;;;-3270.80;80.30;;;;;;5126416;28;20039;-52
2021/12/26 05:49:58;;;;;;;6.05;2.60;;;-3270.80;80.40;;;;;;5113721;28;20035;-47
2021/12/26 05:52:23;;;;;;;5.93;2.70;;;-3270.80;80.70;;;;;;5102230;28;20449;-45
2021/12/26 05:54:49;;;;;;;7.55;3.35;;;-3270.80;80.80;;;;;;5133898;28;20034;-45
2021/12/26 05:57:15;;;;;;;9.52;4.32;;;-3270.80;79.60;;;;;;5104369;28;20036;-49
2021/12/26 05:59:42;;;;;;;6.80;3.08;;;-3270.90;77.90;;;;;;5116063;28;20065;-45
2021/12/26 06:02:08;;;;;;;4.85;2.22;;;-3270.90;78.70;;;;;;5123033;28;20092;-50
2021/12/26 06:04:39;;;;;;;4.38;2.35;;;-3271.00;78.30;;;;;;5129064;28;20040;-45
2021/12/26 06:07:06;;;;;;;5.13;1.95;;;-3271.00;78.60;;;;;;5120102;28;20421;-46
2021/12/26 06:09:31;;;;;;;3.42;2.33;;;-3271.00;78.30;;;;;;5133958;28;20023;-44
2021/12/26 06:11:57;;;;;;;3.00;1.50;;;-3271.00;78.30;;;;;;5134049;28;20507;-45
2021/12/26 06:14:23;;;;;;;3.55;1.77;;;-3271.10;78.50;;;;;;5114532;28;20480;-45
2021/12/26 06:16:48;;;;;;;3.05;1.50;;;-3271.10;78.40;;;;;;5130549;28;20042;-46
2021/12/26 06:19:16;;;;;;;2.88;1.48;;;-3271.10;78.10;;;;;;5133620;28;20039;-52
2021/12/26 06:21:42;;;;;;;4.32;1.48;;;-3271.10;78.30;;;;;;5131149;28;20031;-46
2021/12/26 06:24:08;;;;;;;3.25;1.73;;;-3271.20;78.10;;;;;;5113647;28;20106;-48
2021/12/26 06:26:36;;;;;;;3.50;1.27;;;-3271.20;77.50;;;;;;5114078;28;20437;-44
2021/12/26 06:29:04;;;;;;;4.00;1.50;;;-3271.20;77.20;;;;;;5130634;28;20066;-46
2021/12/26 06:31:30;;;;;;;4.18;1.60;;;-3271.20;77.10;;;;;;5095612;28;20030;-48
2021/12/26 06:33:56;;;;;;;3.55;0.93;;;-3271.20;77.10;;;;;;5130304;28;20027;-48
2021/12/26 06:36:22;;;;;;;2.88;1.20;;;-3271.20;77.20;;;;;;5131888;28;20074;-49
2021/12/26 06:38:48;;;;;;;5.68;2.03;;;-3271.20;77.10;;;;;;5113383;28;20062;-47
2021/12/26 06:41:15;;;;;;;2.92;1.35;;;-3271.30;77.30;;;;;;5132305;28;20050;-48
2021/12/26 06:43:41;;;;;;;2.45;1.38;;;-3271.30;77.10;;;;;;5132800;28;20031;-49
2021/12/26 06:46:07;;;;;;;3.17;0.93;;;-3271.30;77.00;;;;;;5119327;28;20062;-48
2021/12/26 06:48:34;;;;;;;4.40;1.38;;;-3271.20;76.50;;;;;;5113512;28;20062;-47
2021/12/26 06:51:02;;;;;;;3.50;2.03;;;-3271.30;76.50;;;;;;5114919;28;20024;-45
2021/12/26 06:53:28;;;;;;;4.20;1.17;;;-3271.30;75.70;;;;;;5133542;28;20028;-46
2021/12/26 06:55:54;;;;;;;2.97;1.08;;;-3271.40;75.20;;;;;;5133582;27;20269;-47
2021/12/26 06:58:20;;;;;;;2.80;1.10;;;-3271.50;74.20;;;;;;5116995;27;20356;-45
2021/12/26 07:00:46;;;;;;;3.13;1.50;;;-3271.50;74.70;;;;;;5116520;28;20020;-45
2021/12/26 07:03:15;;;;;;;3.65;1.20;;;-3271.40;76.00;;;;;;5100251;28;20061;-48
2021/12/26 07:05:41;;;;;;;2.67;1.00;;;-3271.40;75.60;;;;;;5110445;27;20077;-45
2021/12/26 07:08:09;;;;;;;3.05;1.40;;;-3271.40;75.40;;;;;;5128076;27;20063;-45
2021/12/26 07:10:35;;;;;;;3.33;1.33;;;-3271.50;74.90;;;;;;5116116;28;20066;-46
2021/12/26 07:13:01;;;;;;;2.20;0.93;;;-3271.50;74.00;;;;;;5131917;27;20063;-46
2021/12/26 07:15:27;;;;;;;3.78;1.33;;;-3271.50;73.10;;;;;;5136240;27;20466;-51
2021/12/26 07:17:52;;;;;;;2.58;0.98;;;-3271.60;73.60;;;;;;5134817;27;20694;-45
2021/12/26 07:20:20;;;;;;;3.67;1.17;;;-3271.60;73.80;;;;;;5131442;27;20467;-46
2021/12/26 07:22:46;;;;;;;5.25;1.40;;;-3271.60;72.80;;;;;;5135548;27;20087;-49
2021/12/26 07:25:13;;;;;;;5.22;1.33;;;-3271.50;73.00;;;;;;5116220;28;20036;-46
2021/12/26 07:27:42;;;;;;;3.45;1.25;;;-3271.50;73.10;;;;;;5119776;27;20176;-51
2021/12/26 07:30:08;;;;;;;2.63;1.25;;;-3271.60;72.40;;;;;;5115501;27;20468;-44
2021/12/26 07:32:35;;;;;;;3.13;1.40;;;-3271.60;72.60;;;;;;5133995;27;20031;-44
2021/12/26 07:35:01;;;;;;;4.05;1.35;;;-3271.50;73.00;;;;;;5130559;27;20046;-46
2021/12/26 07:37:29;;;;;;;3.83;1.30;;;-3271.60;73.00;;;;;;5135578;27;20435;-44
2021/12/26 07:39:55;;;;;;;4.03;2.63;;;-3271.50;73.20;;;;;;5111983;27;20053;-45
2021/12/26 07:42:23;;;;;;;2.42;1.10;;;-3271.50;72.10;;;;;;5125765;27;20484;-44
2021/12/26 07:44:49;;;;;;;2.80;1.20;;;-3271.60;71.40;;;;;;5105125;28;20089;-46
2021/12/26 07:47:15;;;;;;;2.35;0.90;;;-3271.60;70.80;;;;;;5117061;27;20031;-44
2021/12/26 07:49:40;;;;;;;5.97;1.65;;;-3271.60;72.00;;;;;;5118440;27;20035;-48
2021/12/26 07:52:16;;;;;;;4.18;1.33;;;-3271.60;71.80;;;;;;5129059;27;20430;-46
2021/12/26 07:54:45;;;;;;;2.83;1.27;;;-3271.50;71.60;;;;;;5098970;28;20047;-46
2021/12/26 07:57:11;;;;;;;3.10;1.30;;;-3271.60;70.90;;;;;;5116967;27;20035;-47
2021/12/26 07:59:37;;;;;;;1.83;0.90;;;-3271.60;69.70;;;;;;5117386;27;20038;-46
2021/12/26 08:02:04;;;;;;;4.50;1.23;;;-3271.60;69.50;;;;;;5125136;27;20337;-44
2021/12/26 08:04:29;;;;;;;2.30;1.20;;;-3271.60;70.10;;;;;;5133367;27;20019;-45
2021/12/26 08:06:58;;;;;;;3.42;1.20;;;-3271.60;69.50;;;;;;5135376;27;20046;-45
2021/12/26 08:09:24;;;;;;;3.30;1.77;;;-3271.70;68.00;;;;;;5133735;27;20024;-47
2021/12/26 08:11:51;;;;;;;4.03;1.48;;;-3271.80;69.00;;;;;;5122481;27;20054;-44
2021/12/26 08:14:17;;;;;;;3.05;1.70;;;-3271.80;67.00;;;;;;5122605;27;20012;-44
2021/12/26 08:16:43;;;;;;;3.13;1.10;;;-3271.80;67.90;;;;;;5131919;27;20027;-45
2021/12/26 08:19:08;;;;;;;2.30;1.00;;;-3271.80;67.60;;;;;;5116012;27;20027;-48
2021/12/26 08:21:34;;;;;;;4.10;1.40;;;-3271.90;66.90;;;;;;5135298;27;20119;-46
2021/12/26 08:24:01;;;;;;;2.72;0.98;;;-3271.90;66.90;;;;;;5125868;27;20041;-47
2021/12/26 08:26:26;;;;;;;3.50;1.20;;;-3271.90;65.70;;;;;;5132633;27;20035;-45
2021/12/26 08:28:52;;;;;;;3.20;1.20;;;-3272.00;65.90;;;;;;5132589;27;20038;-46
2021/12/26 08:31:22;;;;;;;5.15;1.40;;;-3272.00;65.30;;;;;;5120561;27;20095;-47
2021/12/26 08:33:48;;;;;;;2.60;0.98;;;-3272.10;64.40;;;;;;5128783;27;20041;-45
2021/12/26 08:36:19;;;;;;;2.15;1.05;;;-3272.10;65.80;;;;;;5129897;27;20106;-48
2021/12/26 08:38:45;;;;;;;5.90;1.05;;;-3272.10;66.20;;;;;;5125790;27;20023;-46
2021/12/26 08:41:11;;;;;;;2.35;1.40;;;-3272.20;66.20;;;;;;5134470;27;20101;-45
2021/12/26 08:43:36;;;;;;;4.90;2.55;;;-3272.20;67.60;;;;;;5116059;27;20051;-45
2021/12/26 08:46:05;;;;;;;5.40;1.98;;;-3272.10;69.10;;;;;;5131708;27;20053;-47
2021/12/26 08:48:31;;;;;;;5.28;2.10;;;-3272.10;68.10;;;;;;5113510;27;20032;-44
2021/12/26 08:50:56;;;;;;;2.38;1.10;;;-3272.30;66.90;;;;;;5133399;27;20020;-45
2021/12/26 08:53:26;;;;;;;2.95;1.45;;;-3272.50;66.20;;;;;;5133950;27;20016;-48
2021/12/26 08:55:52;;;;;;;2.42;1.10;;;-3272.70;66.00;;;;;;5134723;27;20027;-46
2021/12/26 08:58:18;;;;;;;3.03;1.63;;;-3272.80;65.30;;;;;;5124099;27;20039;-45
2021/12/26 09:00:44;;;;;;;3.28;1.13;;;-3272.90;66.10;;;;;;5110949;27;20050;-45
2021/12/26 09:03:11;;;;;;;1.92;0.98;;;-3273.10;67.70;;;;;;5122708;27;20031;-44
2021/12/26 09:05:37;;;;;;;2.90;1.00;;;-3273.20;67.20;;;;;;5129532;27;20037;-48
2021/12/26 09:08:04;;;;;;;3.60;0.70;;;-3273.30;65.00;;;;;;5113963;27;20031;-45
2021/12/26 09:10:30;;;;;;;2.72;1.00;;;-3273.50;63.40;;;;;;5133444;27;20047;-47
2021/12/26 09:12:55;;;;;;;4.20;1.17;;;-3273.60;63.20;;;;;;5134381;27;20027;-46
2021/12/26 09:15:22;;;;;;;2.50;1.13;;;-3273.80;63.20;;;;;;5115790;27;20468;-50
2021/12/26 09:17:48;;;;;;;3.28;1.55;;;-3273.80;62.90;;;;;;5122912;27;20027;-49
2021/12/26 09:20:13;;;;;;;2.83;0.90;;;-3273.90;61.90;;;;;;5128540;27;20034;-50
2021/12/26 09:22:40;;;;;;;3.33;1.00;;;-3273.90;60.90;;;;;;5132630;27;20039;-43
2021/12/26 09:25:06;;;;;;;1.70;1.00;;;-3273.90;59.50;;;;;;5131714;27;20475;-45
2021/12/26 09:27:32;;;;;;;3.03;1.40;;;-3273.90;61.30;;;;;;5122458;27;20451;-46
2021/12/26 09:29:58;;;;;;;4.20;1.55;;;-3273.90;58.90;;;;;;5121745;27;20118;-45
2021/12/26 09:32:23;;;;;;;2.58;1.40;;;-3273.90;59.20;;;;;;5125359;27;20031;-49
2021/12/26 09:34:49;;;;;;;3.47;1.20;;;-3273.90;60.80;;;;;;5122479;27;20042;-45
2021/12/26 09:37:17;;;;;;;2.58;1.23;;;-3273.90;59.20;;;;;;5114230;27;20089;-45
2021/12/26 09:39:42;;;;;;;2.75;1.63;;;-3273.90;59.10;;;;;;5123774;27;20035;-46
2021/12/26 09:42:09;;;;;;;3.25;1.50;;;-3273.90;59.20;;;;;;5125687;27;20399;-46
2021/12/26 09:44:35;;;;;;;2.92;1.75;;;-3273.90;58.60;;;;;;5132897;27;20060;-48
2021/12/26 09:47:01;;;;;;;6.53;3.38;;;-3273.90;59.60;;;;;;5115077;27;20427;-48
2021/12/26 09:49:26;;;;;;;6.57;2.60;;;-3273.90;61.10;;;;;;5095739;28;20027;-49
2021/12/26 09:51:52;;;;;;;8.13;4.30;;;-3274.00;59.70;;;;;;5113603;28;20030;-49
2021/12/26 09:54:19;;;;;;;4.10;2.50;;;-3274.10;59.20;;;;;;5112584;28;20330;-46
2021/12/26 09:56:46;;;;;;;3.15;1.30;;;-3274.20;58.30;;;;;;5134046;28;20092;-49
2021/12/26 09:59:18;;;;;;;3.63;1.27;;;-3274.30;57.50;;;;;;5124056;28;20046;-48
2021/12/26 10:01:50;;;;;;;2.65;1.02;;;-3274.40;56.70;;;;;;5131529;28;20023;-49
2021/12/26 10:04:31;;;;;;;4.55;1.50;;;-3274.50;55.30;;;;;;5110519;28;20031;-44
2021/12/26 10:07:02;;;;;;;3.55;1.85;;;-3274.50;57.40;;;;;;5130667;28;20035;-47
2021/12/26 10:09:29;;;;;;;3.40;1.25;;;-3274.40;58.20;;;;;;5133563;28;20072;-46
2021/12/26 10:11:57;;;;;;;3.85;1.83;;;-3274.50;57.50;;;;;;5133047;28;20139;-47
2021/12/26 10:14:32;;;;;;;2.42;1.30;;;-3274.50;56.40;;;;;;5131845;28;20050;-46
2021/12/26 10:17:02;;;;;;;2.75;1.25;;;-3274.50;54.30;;;;;;5130963;28;20023;-47
2021/12/26 10:19:45;;;;;;;4.43;1.58;;;-3274.50;55.80;;;;;;5113756;28;20096;-47
2021/12/26 10:22:13;;;;;;;2.33;1.08;;;-3274.50;54.00;;;;;;5127401;28;20114;-46
2021/12/26 10:24:49;;;;;;;4.63;1.58;;;-3274.60;54.40;;;;;;5099041;28;20068;-47
2021/12/26 10:27:21;;;;;;;3.85;1.63;;;-3274.60;54.70;;;;;;5114232;28;20027;-47
2021/12/26 10:29:49;;;;;;;5.82;1.77;;;-3274.60;56.50;;;;;;5115168;28;20027;-49
2021/12/26 10:32:22;;;;;;;3.25;1.45;;;-3274.60;56.10;;;;;;5117575;27;20392;-47
2021/12/26 10:34:55;;;;;;;6.95;2.22;;;-3274.70;54.40;;;;;;5121408;27;20027;-45
2021/12/26 10:37:33;;;;;;;4.28;1.83;;;-3274.80;55.40;;;;;;5122017;27;20127;-45
2021/12/26 10:40:11;;;;;;;3.00;1.25;;;-3274.70;52.90;;;;;;5135652;27;20453;-47
2021/12/26 10:42:44;;;;;;;2.15;1.05;;;-3274.70;51.70;;;;;;5129510;27;20138;-44
2021/12/26 10:45:13;;;;;;;3.13;1.65;;;-3274.80;51.90;;;;;;5117131;28;20336;-47
2021/12/26 10:47:43;;;;;;;3.13;1.38;;;-3274.70;51.80;;;;;;5099089;28;20023;-45
2021/12/26 10:50:11;;;;;;;4.32;1.73;;;-3274.70;51.20;;;;;;5136003;27;20027;-48
2021/12/26 10:52:44;;;;;;;2.90;1.38;;;-3274.80;51.80;;;;;;5113638;27;20022;-45
2021/12/26 10:55:12;;;;;;;3.05;1.85;;;-3274.80;51.70;;;;;;5119356;27;20016;-47
2021/12/26 10:57:41;;;;;;;3.05;1.38;;;-3274.80;53.80;;;;;;5131754;27;20023;-46
2021/12/26 11:00:20;;;;;;;3.85;1.30;;;-3274.80;53.40;;;;;;5128256;27;20059;-44
2021/12/26 11:02:53;;;;;;;3.60;1.98;;;-3274.80;53.20;;;;;;5121553;27;20433;-45
2021/12/26 11:05:31;;;;;;;2.65;1.25;;;-3274.80;53.00;;;;;;5125182;27;20032;-46
2021/12/26 11:07:59;;;;;;;4.03;1.60;;;-3274.90;55.30;;;;;;5132686;27;20023;-45
2021/12/26 11:10:42;;;;;;;3.50;1.95;;;-3274.80;54.10;;;;;;5141288;27;20094;-46
2021/12/26 11:13:34;;;;;;;3.30;1.30;;;-3274.90;54.40;;;;;;5126808;27;20030;-45
2021/12/26 11:16:07;;;;;;;2.92;1.38;;;-3274.90;54.80;;;;;;5118342;27;20035;-45
2021/12/26 11:18:35;;;;;;;8.48;1.58;;;-3274.90;56.00;;;;;;5136875;27;20020;-48
2021/12/26 11:21:13;;;;;;;3.50;1.95;;;-3274.90;55.90;;;;;;5128747;27;20020;-52
2021/12/26 11:23:41;;;;;;;3.75;1.92;;;-3275.00;54.80;;;;;;5114005;27;20467;-46
2021/12/26 11:26:12;;;;;;;2.30;1.15;;;-3275.10;55.10;;;;;;5137008;27;20046;-45
2021/12/26 11:28:44;;;;;;;2.97;1.40;;;-3275.10;55.70;;;;;;5131780;27;20042;-47
2021/12/26 11:31:16;;;;;;;2.97;1.38;;;-3275.20;55.00;;;;;;5132913;27;20481;-46
2021/12/26 11:33:42;;;;;;;3.15;1.75;;;-3275.20;56.10;;;;;;5104460;28;20074;-47
2021/12/26 11:36:12;;;;;;;3.47;1.65;;;-3275.20;56.30;;;;;;5127525;27;20042;-46
2021/12/26 11:38:41;;;;;;;4.57;2.05;;;-3275.20;55.80;;;;;;5116508;27;20159;-49
2021/12/26 11:41:16;;;;;;;4.30;1.67;;;-3275.30;54.20;;;;;;5134175;27;20030;-46
2021/12/26 11:44:04;;;;;;;4.78;2.33;;;-3275.30;54.20;;;;;;5101943;28;20035;-45
2021/12/26 11:47:01;;;;;;;5.50;2.28;;;-3275.30;55.10;;;;;;5118570;27;20354;-47
2021/12/26 11:49:50;;;;;;;6.90;1.92;;;-3275.40;54.80;;;;;;5120866;27;20031;-46
2021/12/26 11:52:24;;;;;;;3.17;1.15;;;-3275.40;52.40;;;;;;5131973;27;20088;-48
2021/12/26 11:55:09;;;;;;;3.17;1.38;;;-3275.50;52.80;;;;;;5130615;27;20049;-50
2021/12/26 11:57:59;;;;;;;3.40;1.52;;;-3275.50;52.10;;;;;;5126078;27;20042;-46
2021/12/26 12:00:37;;;;;;;3.13;1.40;;;-3275.50;53.80;;;;;;5115506;28;20112;-46
2021/12/26 12:03:09;;;;;;;4.63;2.15;;;-3275.50;53.10;;;;;;5097505;28;20031;-47
2021/12/26 12:05:38;;;;;;;4.38;1.83;;;-3275.50;54.90;;;;;;5126645;27;20046;-50
2021/12/26 12:08:15;;;;;;;3.60;1.77;;;-3275.60;53.30;;;;;;5108150;28;20026;-47
2021/12/26 12:10:55;;;;;;;4.18;1.60;;;-3275.70;56.30;;;;;;5097109;28;20042;-45
2021/12/26 12:13:26;;;;;;;3.50;1.60;;;-3275.70;52.90;;;;;;5106724;27;20038;-45
2021/12/26 12:16:03;;;;;;;2.47;1.20;;;-3275.80;51.30;;;;;;5129041;27;20043;-46
2021/12/26 12:18:34;;;;;;;3.42;2.05;;;-3275.80;53.20;;;;;;5122583;27;20027;-46
2021/12/26 12:21:14;;;;;;;3.40;1.63;;;-3275.80;51.30;;;;;;5118712;27;20463;-48
2021/12/26 12:24:03;;;;;;;3.72;1.80;;;-3275.80;52.70;;;;;;5119186;27;20070;-46
2021/12/26 12:26:55;;;;;;;7.10;1.45;;;-3275.90;54.60;;;;;;5129924;27;20392;-46
2021/12/26 12:29:29;;;;;;;4.53;1.52;;;-3275.90;52.30;;;;;;5127296;27;20423;-48